createdAt,value
2022-08-18T00:20:56.119Z,46.26
2022-08-18T00:22:57.773Z,46.72
2022-08-18T00:24:59.389Z,46.45
2022-08-18T00:27:00.988Z,45.66
2022-08-18T00:29:03.910Z,45.86
2022-08-18T00:31:06.313Z,45.90
2022-08-18T00:33:07.900Z,46.15
2022-08-18T00:35:12.605Z,46.33
2022-08-18T00:37:15.632Z,46.14
2022-08-18T00:39:17.315Z,46.78
2022-08-18T00:41:19.665Z,46.00
2022-08-18T00:43:26.077Z,46.17
2022-08-18T00:45:31.852Z,45.85
2022-08-18T00:47:42.856Z,45.77
2022-08-18T00:49:46.342Z,45.82
2022-08-18T00:51:51.644Z,45.52
2022-08-18T00:54:00.554Z,45.85
2022-08-18T00:56:07.818Z,46.14
2022-08-18T00:58:15.401Z,45.74
2022-08-18T01:00:17.336Z,45.18
2022-08-18T01:02:22.843Z,46.61
2022-08-18T01:04:28.005Z,46.38
2022-08-18T01:06:37.222Z,46.36
2022-08-18T01:08:38.776Z,46.47
2022-08-18T01:10:45.255Z,46.42
2022-08-18T01:12:49.332Z,46.64
2022-08-18T01:14:50.987Z,46.09
2022-08-18T01:16:57.054Z,46.37
2022-08-18T01:18:59.343Z,46.54
2022-08-18T01:21:09.010Z,46.38
2022-08-18T01:23:15.484Z,46.73
2022-08-18T01:25:21.379Z,46.88
2022-08-18T01:27:28.559Z,46.69
2022-08-18T01:29:30.157Z,46.25
2022-08-18T01:31:35.063Z,46.80
2022-08-18T01:33:40.423Z,46.74
2022-08-18T01:35:46.983Z,46.36
2022-08-18T01:37:49.068Z,46.11
2022-08-18T01:41:22.595Z,46.35
2022-08-18T01:42:15.921Z,46.32
2022-08-18T01:44:18.167Z,45.70
2022-08-18T01:46:20.692Z,46.07
2022-08-18T01:48:22.289Z,45.56
2022-08-18T01:50:23.860Z,46.00
2022-08-18T01:52:25.412Z,46.17
2022-08-18T01:54:29.065Z,46.17
2022-08-18T01:56:32.065Z,45.92
2022-08-18T01:58:35.414Z,46.12
2022-08-18T02:00:37.039Z,46.65
2022-08-18T02:02:39.504Z,46.42
2022-08-18T02:04:42.652Z,45.94
2022-08-18T02:06:46.464Z,46.26
2022-08-18T02:08:49.835Z,46.80
2022-08-18T02:10:55.948Z,46.43
2022-08-18T02:12:59.083Z,46.84
2022-08-18T02:15:00.645Z,47.20
2022-08-18T02:17:04.117Z,47.15
2022-08-18T02:19:05.707Z,47.32
2022-08-18T02:21:11.220Z,47.10
2022-08-18T02:23:12.766Z,46.98
2022-08-18T02:25:14.926Z,46.67
2022-08-18T02:27:17.061Z,46.44
2022-08-18T02:29:19.944Z,47.19
2022-08-18T02:31:24.098Z,46.78
2022-08-18T02:33:25.688Z,47.35
2022-08-18T02:35:27.666Z,46.89
2022-08-18T02:37:29.232Z,46.70
2022-08-18T02:39:33.705Z,47.33
2022-08-18T02:41:35.338Z,47.02
2022-08-18T02:43:37.894Z,47.57
2022-08-18T02:45:40.887Z,47.30
2022-08-18T02:47:44.198Z,47.10
2022-08-18T02:49:46.039Z,47.38
2022-08-18T02:51:47.653Z,47.33
2022-08-18T02:53:49.244Z,47.49
2022-08-18T02:55:51.017Z,47.60
2022-08-18T02:57:53.047Z,46.80
2022-08-18T02:59:55.193Z,47.53
2022-08-18T03:01:58.431Z,47.50
2022-08-18T03:04:00.815Z,47.49
2022-08-18T03:06:02.365Z,46.98
2022-08-18T03:08:04.322Z,47.05
2022-08-18T03:10:33.389Z,47.44
2022-08-18T03:12:29.644Z,47.14
2022-08-18T03:14:31.214Z,46.98
2022-08-18T03:16:33.861Z,47.55
2022-08-18T03:18:36.939Z,47.36
2022-08-18T03:20:38.566Z,47.21
2022-08-18T03:22:40.108Z,47.50
2022-08-18T03:24:41.769Z,47.80
2022-08-18T03:26:45.090Z,47.19
2022-08-18T03:28:48.393Z,47.15
2022-08-18T03:30:49.969Z,46.89
2022-08-18T03:32:51.528Z,47.13
2022-08-18T03:34:56.435Z,46.76
2022-08-18T03:36:58.535Z,47.03
2022-08-18T03:39:06.056Z,47.45
2022-08-18T03:41:08.256Z,47.42
2022-08-18T03:43:50.254Z,47.57
2022-08-18T03:45:31.360Z,47.07
2022-08-18T03:47:32.986Z,47.26
2022-08-18T03:49:35.018Z,47.72
2022-08-18T03:51:41.860Z,47.43
2022-08-18T03:53:44.334Z,47.82
2022-08-18T03:55:46.014Z,47.91
2022-08-18T03:57:47.705Z,48.27
2022-08-18T03:59:49.244Z,47.67
2022-08-18T04:01:52.041Z,47.67
2022-08-18T04:03:56.417Z,48.59
2022-08-18T04:05:57.953Z,48.68
2022-08-18T04:08:01.147Z,48.91
2022-08-18T04:10:03.386Z,49.06
2022-08-18T04:12:07.311Z,48.72
2022-08-18T04:14:09.025Z,48.85
2022-08-18T04:16:11.806Z,48.85
2022-08-18T04:18:13.355Z,48.75
2022-08-18T04:20:14.922Z,49.45
2022-08-18T04:22:17.463Z,49.24
2022-08-18T04:24:21.399Z,49.14
2022-08-18T04:26:22.983Z,49.87
2022-08-18T04:28:24.805Z,49.43
2022-08-18T04:30:26.808Z,48.95
2022-08-18T04:32:30.890Z,49.68
2022-08-18T04:34:33.326Z,49.84
2022-08-18T04:36:36.408Z,49.51
2022-08-18T04:38:38.727Z,49.70
2022-08-18T04:40:42.461Z,49.47
2022-08-18T04:42:45.133Z,49.86
2022-08-18T04:44:46.700Z,50.07
2022-08-18T04:46:50.312Z,50.45
2022-08-18T04:48:52.400Z,50.87
2022-08-18T04:50:53.964Z,50.87
2022-08-18T04:52:55.560Z,50.29
2022-08-18T04:54:57.107Z,51.01
2022-08-18T04:57:00.068Z,50.46
2022-08-18T04:59:05.090Z,51.00
2022-08-18T05:01:06.704Z,50.97
2022-08-18T05:03:08.365Z,50.86
2022-08-18T05:05:10.503Z,51.27
2022-08-18T05:07:14.150Z,50.98
2022-08-18T05:09:16.867Z,51.22
2022-08-18T05:11:26.825Z,51.70
2022-08-18T05:13:29.786Z,51.70
2022-08-18T05:15:46.835Z,52.28
2022-08-18T05:17:53.277Z,52.17
2022-08-18T05:19:55.587Z,51.84
2022-08-18T05:21:59.795Z,52.07
2022-08-18T05:24:03.248Z,52.91
2022-08-18T05:26:04.885Z,52.77
2022-08-18T05:28:06.445Z,52.48
2022-08-18T05:30:11.199Z,52.35
2022-08-18T05:32:40.995Z,52.54
2022-08-18T05:34:35.460Z,52.62
2022-08-18T05:37:09.487Z,52.45
2022-08-18T05:39:18.348Z,52.72
2022-08-18T05:41:25.505Z,52.26
2022-08-18T05:43:27.131Z,52.94
2022-08-18T05:45:30.190Z,53.24
2022-08-18T05:47:32.965Z,53.00
2022-08-18T05:49:35.915Z,53.53
2022-08-18T05:51:42.307Z,53.57
2022-08-18T05:53:45.557Z,53.79
2022-08-18T05:55:56.157Z,53.69
2022-08-18T05:58:03.209Z,53.65
2022-08-18T06:00:07.383Z,53.84
2022-08-18T06:02:16.788Z,53.48
2022-08-18T06:04:29.329Z,53.26
2022-08-18T06:06:33.135Z,53.74
2022-08-18T06:08:40.489Z,54.17
2022-08-18T06:10:47.321Z,53.56
2022-08-18T06:12:51.795Z,53.70
2022-08-18T06:15:05.656Z,53.75
2022-08-18T06:17:23.515Z,53.66
2022-08-18T06:19:40.605Z,54.15
2022-08-18T06:21:52.513Z,53.69
2022-08-18T06:24:06.622Z,53.94
2022-08-18T06:26:17.665Z,54.09
2022-08-18T06:28:19.344Z,53.44
2022-08-18T06:30:24.682Z,53.17
2022-08-18T06:32:46.477Z,53.98
2022-08-18T06:35:03.482Z,53.40
2022-08-18T06:37:11.931Z,53.39
2022-08-18T06:39:22.104Z,53.66
2022-08-18T06:41:42.578Z,53.21
2022-08-18T06:43:56.443Z,53.17
2022-08-18T06:46:00.475Z,53.36
2022-08-18T06:48:15.176Z,53.63
2022-08-18T06:50:22.597Z,53.93
2022-08-18T06:52:27.503Z,53.99
2022-08-18T06:54:30.480Z,53.85
2022-08-18T06:56:59.902Z,53.62
2022-08-18T06:59:17.436Z,53.60
2022-08-18T07:01:19.437Z,54.00
2022-08-18T07:03:24.065Z,53.92
2022-08-18T07:05:27.148Z,54.27
2022-08-18T07:07:39.517Z,54.10
2022-08-18T07:09:42.161Z,54.27
2022-08-18T07:11:58.683Z,54.15
2022-08-18T07:14:20.148Z,54.77
2022-08-18T07:16:47.075Z,54.38
2022-08-18T07:18:47.268Z,54.43
2022-08-18T07:20:52.075Z,54.38
2022-08-18T07:22:57.217Z,54.26
2022-08-18T07:25:05.504Z,54.22
2022-08-18T07:27:10.331Z,54.04
2022-08-18T07:29:15.476Z,53.98
2022-08-18T07:31:41.139Z,53.89
2022-08-18T07:33:51.268Z,53.84
2022-08-18T07:35:57.280Z,54.17
2022-08-18T07:38:18.662Z,54.24
2022-08-18T07:40:32.444Z,53.70
2022-08-18T07:42:53.956Z,54.48
2022-08-18T07:45:03.057Z,54.43
2022-08-18T07:47:12.361Z,54.10
2022-08-18T07:49:22.491Z,54.42
2022-08-18T07:51:36.029Z,53.89
2022-08-18T07:53:56.409Z,53.89
2022-08-18T07:56:04.981Z,54.21
2022-08-18T07:58:20.085Z,54.21
2022-08-18T08:00:54.811Z,54.37
2022-08-18T08:03:00.468Z,54.62
2022-08-18T08:17:25.567Z,53.74
2022-08-18T08:20:01.823Z,54.19
2022-08-18T08:25:42.713Z,53.58
2022-08-18T08:27:56.371Z,53.07
2022-08-18T08:30:04.397Z,53.81
2022-08-18T08:32:10.974Z,55.64
2022-08-18T08:34:16.749Z,55.24
2022-08-18T08:36:23.540Z,55.90
2022-08-18T08:38:42.123Z,56.61
2022-08-18T08:40:50.983Z,56.62
2022-08-18T08:42:58.735Z,56.60
2022-08-18T08:45:05.466Z,56.68
2022-08-18T08:47:15.068Z,56.59
2022-08-18T08:49:35.712Z,56.28
2022-08-18T08:51:41.821Z,57.12
2022-08-18T08:53:47.661Z,56.59
2022-08-18T08:55:53.305Z,56.53
2022-08-18T08:58:02.244Z,56.50
2022-08-18T09:00:08.314Z,55.99
2022-08-18T09:05:08.311Z,55.66
2022-08-18T09:07:29.534Z,55.67
2022-08-18T09:09:57.806Z,55.91
2022-08-18T09:12:32.076Z,57.17
2022-08-18T09:14:52.678Z,55.96
2022-08-18T09:17:16.114Z,56.52
2022-08-18T09:19:34.148Z,56.38
2022-08-18T09:21:44.160Z,56.66
2022-08-18T09:23:48.244Z,57.00
2022-08-18T09:25:52.159Z,57.06
2022-08-18T09:28:10.964Z,57.59
2022-08-18T09:30:40.005Z,57.43
2022-08-18T09:32:56.811Z,58.12
2022-08-18T09:35:09.016Z,57.91
2022-08-18T09:37:21.446Z,57.62
2022-08-18T09:39:31.969Z,57.43
2022-08-18T09:41:39.576Z,57.12
2022-08-18T09:43:56.492Z,58.13
2022-08-18T09:45:59.232Z,58.16
2022-08-18T09:51:23.342Z,58.34
2022-08-18T09:53:54.143Z,58.06
2022-08-18T09:56:01.342Z,54.66
2022-08-18T09:58:20.033Z,56.50
2022-08-18T10:00:30.473Z,55.89
2022-08-18T10:03:04.626Z,54.83
2022-08-18T10:05:27.005Z,53.13
2022-08-18T10:07:38.937Z,53.06
2022-08-18T10:09:58.618Z,52.02
2022-08-18T10:12:31.852Z,52.56
2022-08-18T10:14:52.605Z,51.71
2022-08-18T10:17:23.783Z,52.08
2022-08-18T10:19:39.902Z,51.27
2022-08-18T10:22:06.981Z,50.61
2022-08-18T10:24:36.446Z,50.32
2022-08-18T10:27:25.862Z,50.62
2022-08-18T10:29:54.548Z,51.26
2022-08-18T10:32:21.825Z,50.39
2022-08-18T10:34:38.423Z,51.19
2022-08-18T10:36:52.370Z,51.09
2022-08-18T10:38:54.193Z,50.68
2022-08-18T10:41:09.439Z,50.16
2022-08-18T10:45:59.381Z,49.77
2022-08-18T10:48:17.944Z,50.80
2022-08-18T10:50:23.048Z,50.23
2022-08-18T10:55:20.174Z,49.19
2022-08-18T10:57:31.220Z,49.19
2022-08-18T10:59:41.695Z,49.00
2022-08-18T11:02:06.089Z,48.55
2022-08-18T11:06:40.753Z,48.23
2022-08-18T11:08:45.109Z,48.46
2022-08-18T11:11:27.412Z,48.43
2022-08-18T11:13:21.518Z,48.14
2022-08-18T11:15:36.205Z,48.30
2022-08-18T11:17:55.024Z,48.24
2022-08-18T11:19:58.614Z,48.24
2022-08-18T11:22:00.336Z,48.05
2022-08-18T11:24:04.857Z,47.90
2022-08-18T11:26:14.322Z,47.55
2022-08-18T11:28:21.788Z,47.37
2022-08-18T11:30:35.337Z,47.66
2022-08-18T11:32:46.563Z,47.20
2022-08-18T11:35:02.985Z,47.26
2022-08-18T11:37:09.108Z,47.01
2022-08-18T11:39:12.576Z,46.94
2022-08-18T11:41:18.972Z,47.04
2022-08-18T11:43:29.730Z,47.05
2022-08-18T11:45:55.398Z,46.55
2022-08-18T11:48:11.099Z,46.85
2022-08-18T11:50:14.142Z,47.30
2022-08-18T11:52:26.237Z,46.90
2022-08-18T11:54:50.849Z,46.36
2022-08-18T11:57:37.732Z,45.82
2022-08-18T11:59:52.406Z,46.21
2022-08-18T12:01:57.169Z,45.80
2022-08-18T12:04:09.523Z,46.16
2022-08-18T12:06:21.916Z,46.50
2022-08-18T12:08:56.697Z,45.97
2022-08-18T12:13:26.630Z,45.75
2022-08-18T12:15:44.300Z,44.89
2022-08-18T12:17:52.137Z,44.83
2022-08-18T12:19:54.819Z,44.75
2022-08-18T12:22:01.540Z,45.49
2022-08-18T12:24:05.093Z,45.30
2022-08-18T12:26:06.828Z,45.35
2022-08-18T12:28:28.577Z,45.62
2022-08-18T12:30:30.183Z,45.08
2022-08-18T12:32:48.810Z,43.99
2022-08-18T12:34:52.725Z,43.47
2022-08-18T12:36:55.880Z,42.66
2022-08-18T12:38:58.843Z,42.74
2022-08-18T12:41:00.842Z,42.46
2022-08-18T12:43:05.906Z,42.55
2022-08-18T12:45:09.051Z,42.75
2022-08-18T12:47:13.506Z,43.17
2022-08-18T12:49:18.508Z,42.71
2022-08-18T12:51:20.095Z,42.82
2022-08-18T12:55:49.992Z,43.17
2022-08-18T13:00:18.674Z,43.67
2022-08-18T13:02:20.569Z,43.75
2022-08-18T13:04:22.499Z,43.33
2022-08-18T13:06:37.764Z,43.85
2022-08-18T13:08:50.244Z,43.11
2022-08-18T13:10:56.306Z,43.42
2022-08-18T13:12:59.838Z,43.42
2022-08-18T13:15:01.446Z,43.23
2022-08-18T13:17:03.133Z,43.04
2022-08-18T13:19:06.041Z,43.43
2022-08-18T13:21:08.748Z,43.69
2022-08-18T13:23:11.558Z,42.99
2022-08-18T13:25:28.692Z,42.66
2022-08-18T13:27:37.406Z,41.50
2022-08-18T13:29:39.272Z,40.24
2022-08-18T13:31:49.305Z,40.48
2022-08-18T13:34:00.670Z,40.98
2022-08-18T13:36:06.400Z,40.92
2022-08-18T13:38:14.132Z,41.68
2022-08-18T13:40:19.343Z,41.64
2022-08-18T13:42:26.675Z,42.04
2022-08-18T13:44:33.293Z,41.79
2022-08-18T13:46:34.958Z,40.72
2022-08-18T13:48:37.253Z,39.29
2022-08-18T13:50:39.887Z,40.41
2022-08-18T13:52:44.704Z,39.82
2022-08-18T13:54:46.537Z,39.12
2022-08-18T13:56:55.528Z,38.18
2022-08-18T13:58:59.928Z,37.70
2022-08-18T14:01:39.458Z,37.48
2022-08-18T14:03:47.046Z,37.55
2022-08-18T14:05:51.495Z,37.14
2022-08-18T14:07:54.646Z,36.87
2022-08-18T14:09:58.964Z,37.08
2022-08-18T14:12:15.492Z,36.90
2022-08-18T14:14:23.397Z,37.13
2022-08-18T14:16:28.984Z,37.93
2022-08-18T14:18:30.986Z,38.42
2022-08-18T14:20:35.769Z,38.98
2022-08-18T14:22:38.916Z,39.25
2022-08-18T14:24:42.435Z,39.36
2022-08-18T14:26:50.767Z,39.52
2022-08-18T14:28:52.841Z,39.63
2022-08-18T14:30:55.269Z,40.02
2022-08-18T14:32:59.301Z,40.10
2022-08-18T14:35:32.119Z,40.71
2022-08-18T14:37:25.284Z,41.05
2022-08-18T14:39:27.187Z,41.12
2022-08-18T14:41:31.299Z,41.24
2022-08-18T14:44:00.421Z,41.55
2022-08-18T14:45:58.033Z,41.50
2022-08-18T14:48:02.399Z,41.19
2022-08-18T14:50:10.091Z,41.27
2022-08-18T14:52:14.055Z,40.85
2022-08-18T14:54:19.439Z,40.87
2022-08-18T14:56:20.975Z,41.11
2022-08-18T14:58:26.931Z,41.42
2022-08-18T15:00:29.070Z,41.38
2022-08-18T15:02:30.663Z,41.10
2022-08-18T15:04:33.765Z,41.33
2022-08-18T15:06:40.125Z,41.34
2022-08-18T15:08:43.817Z,41.17
2022-08-18T15:10:49.196Z,41.25
2022-08-18T15:12:54.449Z,41.20
2022-08-18T15:14:56.292Z,41.26
2022-08-18T15:16:58.866Z,41.19
2022-08-18T15:19:01.904Z,41.32
2022-08-18T15:21:05.113Z,41.28
2022-08-18T15:23:24.890Z,41.22
2022-08-18T15:25:30.677Z,41.21
2022-08-18T15:27:42.400Z,41.26
2022-08-18T15:29:44.973Z,41.00
2022-08-18T15:31:50.228Z,41.04
2022-08-18T15:33:52.119Z,41.34
2022-08-18T15:35:54.123Z,41.25
2022-08-18T15:37:57.363Z,40.83
2022-08-18T15:40:01.374Z,41.12
2022-08-18T15:42:10.304Z,40.95
2022-08-18T15:44:13.023Z,40.75
2022-08-18T15:46:16.611Z,41.08
2022-08-18T15:48:22.906Z,40.89
2022-08-18T15:50:25.792Z,40.79
2022-08-18T15:52:27.781Z,40.53
2022-08-18T15:54:31.098Z,40.63
2022-08-18T15:56:33.390Z,40.46
2022-08-18T15:58:34.944Z,40.45
2022-08-18T16:00:38.246Z,40.71
2022-08-18T16:02:40.915Z,40.47
2022-08-18T16:04:47.003Z,40.63
2022-08-18T16:06:53.705Z,40.51
2022-08-18T16:08:57.252Z,40.49
2022-08-18T16:11:07.329Z,40.26
2022-08-18T16:13:09.506Z,40.01
2022-08-18T16:17:23.755Z,39.96
2022-08-18T16:19:31.899Z,39.92
2022-08-18T16:21:34.406Z,39.97
2022-08-18T16:23:37.142Z,39.99
2022-08-18T16:25:42.450Z,40.07
2022-08-18T16:27:46.099Z,39.70
2022-08-18T16:29:47.667Z,39.65
2022-08-18T16:31:49.220Z,39.61
2022-08-18T16:33:52.046Z,39.68
2022-08-18T16:35:53.796Z,39.83
2022-08-18T16:37:55.390Z,39.81
2022-08-18T16:39:57.909Z,39.51
2022-08-18T16:41:59.663Z,39.57
2022-08-18T16:44:02.821Z,40.01
2022-08-18T16:46:09.171Z,39.57
2022-08-18T16:48:12.573Z,39.19
2022-08-18T16:50:17.354Z,39.51
2022-08-18T16:52:19.849Z,39.10
2022-08-18T16:54:21.456Z,39.42
2022-08-18T16:56:26.304Z,39.20
2022-08-18T16:58:27.886Z,39.42
2022-08-18T17:00:33.768Z,39.65
2022-08-18T17:02:35.352Z,39.73
2022-08-18T17:04:37.183Z,39.71
2022-08-18T17:06:47.861Z,39.45
2022-08-18T17:08:49.683Z,39.48
2022-08-18T17:10:51.229Z,39.08
2022-08-18T17:12:52.895Z,39.44
2022-08-18T17:14:54.914Z,39.15
2022-08-18T17:16:59.212Z,39.23
2022-08-18T17:19:03.704Z,38.97
2022-08-18T17:21:07.680Z,39.16
2022-08-18T17:23:09.264Z,39.37
2022-08-18T17:25:13.325Z,39.03
2022-08-18T17:27:26.627Z,39.02
2022-08-18T17:29:34.770Z,39.22
2022-08-18T17:31:36.574Z,39.09
2022-08-18T17:33:42.790Z,39.02
2022-08-18T17:35:46.394Z,38.97
2022-08-18T17:37:53.659Z,38.80
2022-08-18T17:39:57.804Z,38.71
2022-08-18T17:41:59.428Z,38.99
2022-08-18T17:44:03.164Z,38.92
2022-08-18T17:46:13.443Z,38.96
2022-08-18T17:48:21.865Z,38.97
2022-08-18T17:50:30.715Z,38.30
2022-08-18T17:52:38.499Z,38.93
2022-08-18T17:54:43.904Z,38.96
2022-08-18T17:56:51.152Z,38.95
2022-08-18T17:58:55.952Z,38.46
2022-08-18T18:00:57.502Z,38.83
2022-08-18T18:02:59.652Z,38.58
2022-08-18T18:05:03.697Z,38.63
2022-08-18T18:07:19.887Z,38.43
2022-08-18T18:09:30.335Z,38.42
2022-08-18T18:11:35.236Z,38.67
2022-08-18T18:13:36.883Z,39.03
2022-08-18T18:15:42.978Z,38.96
2022-08-18T18:17:44.633Z,38.97
2022-08-18T18:19:49.601Z,38.90
2022-08-18T18:22:03.590Z,38.88
2022-08-18T18:24:15.144Z,38.36
2022-08-18T18:26:24.283Z,38.55
2022-08-18T18:28:28.341Z,38.75
2022-08-18T18:30:30.059Z,38.39
2022-08-18T18:32:34.678Z,38.36
2022-08-18T18:34:42.803Z,38.56
2022-08-18T18:36:47.292Z,38.55
2022-08-18T18:39:06.367Z,38.46
2022-08-18T18:41:22.282Z,38.28
2022-08-18T18:43:26.579Z,38.57
2022-08-18T18:45:30.362Z,38.35
2022-08-18T18:48:03.171Z,38.18
2022-08-18T18:50:09.615Z,38.25
2022-08-18T18:52:19.174Z,38.72
2022-08-18T18:54:39.171Z,38.06
2022-08-18T18:56:47.670Z,38.38
2022-08-18T18:59:04.998Z,38.50
2022-08-18T19:01:13.975Z,37.95
2022-08-18T19:03:20.050Z,38.25
2022-08-18T19:05:27.889Z,38.45
2022-08-18T19:07:36.219Z,38.13
2022-08-18T19:09:50.114Z,38.09
2022-08-18T19:12:10.794Z,37.99
2022-08-18T19:14:16.824Z,38.12
2022-08-18T19:16:23.738Z,38.34
2022-08-18T19:18:27.825Z,37.99
2022-08-18T19:20:36.504Z,38.24
2022-08-18T19:22:42.168Z,38.48
2022-08-18T19:24:52.518Z,38.25
2022-08-18T19:26:59.723Z,38.54
2022-08-18T19:29:13.300Z,38.41
2022-08-18T19:31:23.212Z,38.56
2022-08-18T19:33:32.505Z,38.32
2022-08-18T19:35:49.406Z,38.37
2022-08-18T19:38:06.707Z,38.41
2022-08-18T19:40:16.673Z,38.77
2022-08-18T19:42:27.955Z,38.66
2022-08-18T19:44:51.054Z,38.83
2022-08-18T19:47:09.837Z,38.69
2022-08-18T19:49:19.524Z,38.45
2022-08-18T19:51:28.421Z,38.52
2022-08-18T19:53:52.744Z,38.82
2022-08-18T19:56:11.351Z,38.51
2022-08-18T19:59:11.558Z,38.96
2022-08-18T20:01:20.889Z,38.86
2022-08-18T20:03:43.027Z,38.46
2022-08-18T20:05:53.415Z,38.66
2022-08-18T20:08:22.882Z,38.75
2022-08-18T20:10:43.890Z,39.10
2022-08-18T20:13:13.550Z,39.05
2022-08-18T20:15:18.724Z,39.16
2022-08-18T20:17:21.921Z,39.03
2022-08-18T20:19:48.675Z,38.96
2022-08-18T20:22:01.788Z,38.99
2022-08-18T20:24:05.567Z,39.24
2022-08-18T20:26:41.152Z,39.20
2022-08-18T20:28:42.766Z,38.83
2022-08-18T20:30:58.066Z,38.70
2022-08-18T20:33:14.870Z,39.29
2022-08-18T20:35:24.580Z,39.20
2022-08-18T20:37:27.218Z,39.43
2022-08-18T20:39:43.660Z,39.15
2022-08-18T20:41:45.575Z,39.31
2022-08-18T20:43:50.906Z,39.53
2022-08-18T20:46:03.408Z,38.89
2022-08-18T20:48:20.420Z,39.80
2022-08-18T20:50:42.987Z,39.77
2022-08-18T20:52:48.824Z,39.59
2022-08-18T20:55:00.275Z,39.81
2022-08-18T20:57:12.116Z,40.08
2022-08-18T20:59:17.679Z,39.83
2022-08-18T21:01:23.519Z,40.23
2022-08-18T21:03:35.614Z,40.12
2022-08-18T21:05:39.690Z,40.75
2022-08-18T21:08:01.018Z,40.49
2022-08-18T21:10:12.391Z,40.08
2022-08-18T21:12:21.346Z,40.23
2022-08-18T21:14:29.866Z,40.04
2022-08-18T21:16:39.387Z,39.86
2022-08-18T21:18:49.614Z,40.19
2022-08-18T21:20:53.663Z,39.96
2022-08-18T21:23:08.912Z,40.19
2022-08-18T21:25:14.102Z,39.95
2022-08-18T21:27:24.369Z,39.83
2022-08-18T21:29:27.360Z,40.08
2022-08-18T21:31:50.343Z,40.44
2022-08-18T21:33:53.940Z,40.42
2022-08-18T21:35:55.699Z,40.14
2022-08-18T21:37:59.313Z,40.41
2022-08-18T21:40:02.696Z,40.49
2022-08-18T21:42:04.816Z,40.13
2022-08-18T21:44:08.642Z,40.48
2022-08-18T21:46:13.004Z,40.65
2022-08-18T21:48:16.104Z,40.75
2022-08-18T21:50:20.023Z,40.85
2022-08-18T21:52:22.279Z,40.56
2022-08-18T21:54:29.124Z,40.61
2022-08-18T21:56:34.078Z,41.40
2022-08-18T21:58:40.044Z,41.52
2022-08-18T22:00:43.441Z,41.55
2022-08-18T22:02:45.720Z,41.54
2022-08-18T22:04:48.698Z,42.37
2022-08-18T22:06:54.189Z,42.51
2022-08-18T22:08:58.934Z,42.48
2022-08-18T22:11:18.299Z,42.59
2022-08-18T22:13:49.251Z,42.91
2022-08-18T22:15:53.913Z,42.92
2022-08-18T22:17:58.569Z,42.80
2022-08-18T22:20:34.261Z,43.14
2022-08-18T22:22:35.851Z,42.56
2022-08-18T22:24:38.756Z,42.62
2022-08-18T22:26:40.629Z,42.30
2022-08-18T22:28:49.930Z,42.35
2022-08-18T22:30:51.651Z,42.44
2022-08-18T22:32:53.465Z,42.84
2022-08-18T22:34:55.254Z,42.52
2022-08-18T22:37:00.824Z,42.60
2022-08-18T22:39:02.669Z,42.80
2022-08-18T22:41:04.740Z,42.38
2022-08-18T22:43:06.309Z,42.42
2022-08-18T22:45:11.321Z,42.25
2022-08-18T22:47:13.359Z,42.69
2022-08-18T22:49:15.125Z,42.84
2022-08-18T22:51:22.143Z,42.22
2022-08-18T22:53:25.174Z,42.79
2022-08-18T22:55:26.807Z,42.53
2022-08-18T22:57:30.464Z,42.54
2022-08-18T22:59:34.494Z,42.88
2022-08-18T23:01:36.966Z,42.84
2022-08-18T23:03:41.962Z,42.43
2022-08-18T23:05:44.176Z,42.26
2022-08-18T23:07:45.763Z,42.82
2022-08-18T23:09:48.794Z,42.50
2022-08-18T23:11:51.642Z,42.59
2022-08-18T23:13:53.289Z,42.38
2022-08-18T23:15:54.933Z,42.34
2022-08-18T23:21:07.051Z,42.48
2022-08-18T23:23:08.621Z,42.63
2022-08-18T23:25:11.609Z,42.13
2022-08-18T23:27:13.288Z,43.08
2022-08-18T23:29:14.918Z,43.13
2022-08-18T23:31:17.009Z,42.67
2022-08-18T23:33:19.021Z,43.35
2022-08-18T23:35:20.670Z,43.13
2022-08-18T23:37:22.286Z,42.98
2022-08-18T23:39:25.310Z,43.10
2022-08-18T23:41:31.356Z,42.66
2022-08-18T23:43:32.960Z,43.27
2022-08-18T23:45:35.415Z,43.24
2022-08-18T23:47:37.609Z,43.38
2022-08-18T23:49:39.263Z,43.45
2022-08-18T23:51:43.766Z,43.37
2022-08-18T23:53:45.357Z,43.32
2022-08-18T23:55:46.894Z,43.09
2022-08-18T23:57:49.862Z,42.83
2022-08-18T23:59:51.437Z,42.99
